Time;durP1;ratioP1;P1;durP2;ratioP2;P2;SDS_P1;SDS_P2;PMS_P1;PMS_P2;Temp;Humidity;BMP_temperature;BMP_pressure;BME280_temperature;BME280_humidity;BME280_pressure;Samples;Min_cycle;Max_cycle;Signal;HPM_P1;HPM_P2
2022/04/07 00:00:56;;;;;;;2.42;2.22;;;11.40;71.00;;;;;;5057021;28;20242;-79
2022/04/07 00:03:23;;;;;;;2.50;2.30;;;11.40;71.50;;;;;;5067302;28;20222;-79
2022/04/07 00:05:51;;;;;;;2.80;2.60;;;11.40;71.00;;;;;;5059597;28;20562;-79
2022/04/07 00:08:18;;;;;;;2.25;2.05;;;11.40;71.10;;;;;;5056519;28;20226;-79
2022/04/07 00:10:46;;;;;;;2.60;1.92;;;11.30;71.20;;;;;;5055887;28;20222;-80
2022/04/07 00:13:13;;;;;;;2.50;2.30;;;11.30;71.30;;;;;;5063619;28;20210;-80
2022/04/07 00:15:41;;;;;;;2.55;2.35;;;11.30;71.70;;;;;;5069544;28;20234;-80
2022/04/07 00:18:08;;;;;;;2.40;2.20;;;11.30;71.90;;;;;;5064066;28;20252;-80
2022/04/07 00:20:35;;;;;;;3.42;2.10;;;11.30;72.00;;;;;;5057997;28;20202;-79
2022/04/07 00:23:03;;;;;;;1.90;1.80;;;11.30;70.20;;;;;;5058606;28;20294;-78
2022/04/07 00:25:30;;;;;;;1.80;1.70;;;11.20;68.70;;;;;;5062578;28;20231;-79
2022/04/07 00:27:59;;;;;;;2.13;2.00;;;11.20;68.70;;;;;;5076845;28;20230;-80
2022/04/07 00:30:26;;;;;;;2.08;1.80;;;11.30;68.80;;;;;;5065375;28;20785;-80
2022/04/07 00:32:53;;;;;;;3.20;2.00;;;11.30;70.00;;;;;;5063452;28;20234;-79
2022/04/07 00:35:21;;;;;;;2.50;2.30;;;11.30;71.40;;;;;;5064198;28;20218;-80
2022/04/07 00:37:48;;;;;;;2.50;2.30;;;11.20;72.60;;;;;;5060599;28;20264;-78
2022/04/07 00:40:16;;;;;;;2.70;2.50;;;11.20;73.50;;;;;;5064570;28;20233;-79
2022/04/07 00:42:47;;;;;;;4.97;2.10;;;11.10;74.50;;;;;;5056641;28;20206;-79
2022/04/07 00:45:15;;;;;;;2.47;1.90;;;11.00;75.30;;;;;;5055049;28;20261;-79
2022/04/07 00:47:43;;;;;;;2.60;2.10;;;11.00;74.40;;;;;;5055666;28;20225;-79
2022/04/07 00:50:11;;;;;;;1.88;1.52;;;10.90;73.00;;;;;;5054586;28;20551;-79
2022/04/07 00:52:42;;;;;;;1.63;1.52;;;10.90;72.00;;;;;;5055929;28;20202;-80
2022/04/07 00:55:11;;;;;;;1.52;1.30;;;10.80;71.00;;;;;;5056615;28;20238;-79
2022/04/07 00:57:40;;;;;;;1.15;1.10;;;10.80;69.00;;;;;;5060110;28;20236;-79
2022/04/07 01:00:09;;;;;;;0.88;0.85;;;10.80;67.70;;;;;;5058804;28;20718;-79
2022/04/07 01:02:37;;;;;;;1.80;0.80;;;10.80;66.30;;;;;;5064985;28;20651;-79
2022/04/07 01:05:05;;;;;;;0.93;0.93;;;10.80;65.70;;;;;;5062346;28;20248;-79
2022/04/07 01:07:36;;;;;;;1.08;0.90;;;10.80;64.80;;;;;;5062064;28;20218;-78
2022/04/07 01:10:03;;;;;;;1.85;0.90;;;10.80;63.90;;;;;;5056723;28;20210;-80
2022/04/07 01:12:30;;;;;;;2.03;0.80;;;10.80;63.20;;;;;;5057619;28;20622;-79
2022/04/07 01:15:01;;;;;;;0.70;0.70;;;10.80;63.80;;;;;;5055685;28;20726;-79
2022/04/07 01:17:28;;;;;;;1.33;1.23;;;10.80;64.50;;;;;;5055609;28;20199;-79
2022/04/07 01:19:57;;;;;;;0.63;0.63;;;10.90;65.20;;;;;;5056119;28;20215;-78
2022/04/07 01:22:24;;;;;;;1.42;0.93;;;11.00;64.80;;;;;;5055733;28;20268;-78
2022/04/07 01:24:52;;;;;;;0.95;0.95;;;11.00;64.30;;;;;;5055837;28;20282;-80
2022/04/07 01:27:20;;;;;;;1.00;0.70;;;11.00;63.60;;;;;;5055469;28;20219;-79
2022/04/07 01:29:47;;;;;;;0.85;0.80;;;11.10;62.60;;;;;;5055040;28;20215;-79
2022/04/07 01:32:19;;;;;;;1.10;0.90;;;11.10;62.50;;;;;;5054792;28;20264;-79
2022/04/07 01:34:46;;;;;;;0.93;0.93;;;11.10;61.60;;;;;;5056017;28;20256;-78
2022/04/07 01:37:13;;;;;;;1.67;0.85;;;11.10;60.80;;;;;;5059914;28;20301;-79
2022/04/07 01:39:42;;;;;;;1.20;1.00;;;11.20;59.80;;;;;;5071123;28;20175;-80
2022/04/07 01:42:14;;;;;;;0.77;0.77;;;11.20;59.80;;;;;;5075693;28;20218;-78
2022/04/07 01:44:47;;;;;;;1.00;0.90;;;11.20;59.80;;;;;;5067461;28;20221;-80
2022/04/07 01:47:18;;;;;;;1.60;0.85;;;11.20;59.80;;;;;;5080415;28;20187;-80
2022/04/07 01:49:47;;;;;;;1.13;0.80;;;11.20;62.70;;;;;;5080172;28;20213;-80
2022/04/07 01:52:17;;;;;;;1.63;0.95;;;11.00;64.50;;;;;;5079929;28;20234;-79
2022/04/07 01:54:45;;;;;;;1.83;0.80;;;10.80;66.70;;;;;;5077832;28;20222;-80
2022/04/07 01:57:14;;;;;;;0.60;0.60;;;10.80;68.30;;;;;;5074879;28;20212;-79
2022/04/07 01:59:41;;;;;;;1.20;0.90;;;10.60;68.10;;;;;;5065566;28;20628;-79
2022/04/07 02:02:08;;;;;;;1.80;0.95;;;10.60;69.70;;;;;;5066251;28;20316;-79
2022/04/07 02:04:51;;;;;;;1.65;0.88;;;10.50;70.60;;;;;;5064748;28;20226;-79
2022/04/07 02:07:18;;;;;;;0.95;0.95;;;10.50;69.90;;;;;;5072042;28;20202;-79
2022/04/07 02:09:45;;;;;;;1.13;1.00;;;10.50;70.70;;;;;;5074445;28;20210;-79
2022/04/07 02:12:13;;;;;;;1.48;1.00;;;10.40;72.30;;;;;;5064237;28;20222;-79
2022/04/07 02:14:40;;;;;;;1.60;1.33;;;10.40;72.30;;;;;;5063763;28;20226;-78
2022/04/07 02:17:07;;;;;;;0.80;0.80;;;10.30;72.20;;;;;;5065445;28;20277;-78
2022/04/07 02:19:34;;;;;;;1.50;1.02;;;10.30;73.40;;;;;;5069902;28;20260;-79
2022/04/07 02:22:01;;;;;;;1.00;0.85;;;10.30;73.60;;;;;;5074500;28;20218;-78
2022/04/07 02:24:28;;;;;;;0.90;0.90;;;10.30;73.50;;;;;;5075304;28;20278;-79
2022/04/07 02:26:55;;;;;;;1.50;1.00;;;10.30;72.80;;;;;;5074953;28;20245;-78
2022/04/07 02:29:23;;;;;;;1.38;0.90;;;10.30;72.20;;;;;;5072113;28;20237;-78
2022/04/07 02:31:51;;;;;;;1.00;0.90;;;10.30;72.00;;;;;;5073184;28;20276;-77
2022/04/07 02:34:18;;;;;;;1.60;1.35;;;10.40;72.00;;;;;;5074184;28;20206;-78
2022/04/07 02:36:45;;;;;;;0.80;0.80;;;10.40;71.00;;;;;;5078607;28;20195;-77
2022/04/07 02:39:11;;;;;;;0.93;0.80;;;10.40;70.10;;;;;;5072900;28;20670;-77
2022/04/07 02:41:38;;;;;;;0.90;0.77;;;10.50;68.90;;;;;;5070346;28;20298;-77
2022/04/07 02:44:06;;;;;;;0.68;0.68;;;10.50;68.10;;;;;;5061299;28;20254;-77
2022/04/07 02:46:35;;;;;;;1.42;0.80;;;10.60;68.10;;;;;;5069851;28;20230;-77
2022/04/07 02:49:02;;;;;;;1.60;0.90;;;10.50;68.00;;;;;;5060102;28;20215;-77
2022/04/07 02:51:31;;;;;;;0.68;0.60;;;10.60;67.50;;;;;;5062552;28;20233;-77
2022/04/07 02:53:58;;;;;;;1.30;0.80;;;10.70;66.00;;;;;;5074084;28;20256;-78
2022/04/07 02:56:25;;;;;;;2.15;0.80;;;10.70;65.10;;;;;;5070154;28;20233;-77
2022/04/07 02:58:52;;;;;;;0.75;0.75;;;10.70;64.70;;;;;;5060007;28;20284;-77
2022/04/07 03:01:20;;;;;;;0.95;0.65;;;10.70;64.70;;;;;;5058447;28;20226;-79
2022/04/07 03:03:48;;;;;;;2.88;0.88;;;10.70;63.80;;;;;;5069503;28;20252;-78
2022/04/07 03:06:15;;;;;;;0.70;0.70;;;10.80;63.90;;;;;;5062352;28;20326;-78
2022/04/07 03:08:43;;;;;;;1.35;1.25;;;10.80;62.50;;;;;;5061430;28;20640;-78
2022/04/07 03:11:10;;;;;;;0.60;0.60;;;10.80;62.30;;;;;;5058529;28;20228;-78
2022/04/07 03:13:37;;;;;;;0.80;0.80;;;10.80;62.10;;;;;;5056307;28;20297;-77
2022/04/07 03:16:05;;;;;;;0.73;0.57;;;10.90;61.70;;;;;;5056166;28;20235;-78
2022/04/07 03:18:33;;;;;;;1.25;1.02;;;10.80;61.10;;;;;;5056208;28;20213;-78
2022/04/07 03:21:01;;;;;;;1.33;0.77;;;10.90;61.00;;;;;;5056317;28;20594;-77
2022/04/07 03:23:28;;;;;;;1.42;0.73;;;10.90;60.50;;;;;;5060283;28;20212;-77
2022/04/07 03:25:56;;;;;;;0.63;0.63;;;10.90;60.00;;;;;;5062269;28;20241;-77
2022/04/07 03:28:22;;;;;;;0.93;0.60;;;10.90;59.50;;;;;;5061890;28;20203;-78
2022/04/07 03:30:49;;;;;;;0.70;0.70;;;10.90;59.50;;;;;;5063769;28;20301;-79
2022/04/07 03:33:16;;;;;;;0.90;0.90;;;10.90;60.20;;;;;;5057968;28;20266;-78
2022/04/07 03:35:43;;;;;;;0.55;0.55;;;10.90;59.50;;;;;;5066280;28;20210;-78
2022/04/07 03:38:12;;;;;;;0.70;0.70;;;10.90;59.50;;;;;;5073996;28;20209;-78
2022/04/07 03:40:39;;;;;;;0.57;0.57;;;10.90;59.60;;;;;;5073382;28;20206;-79
2022/04/07 03:43:06;;;;;;;0.82;0.82;;;10.90;59.50;;;;;;5059821;28;20230;-77
2022/04/07 03:45:33;;;;;;;0.98;0.60;;;10.90;60.10;;;;;;5072627;28;20249;-77
2022/04/07 03:48:01;;;;;;;1.42;0.70;;;11.00;59.60;;;;;;5064262;28;20206;-78
2022/04/07 03:50:28;;;;;;;0.70;0.70;;;11.00;59.60;;;;;;5057559;28;20218;-78
2022/04/07 03:52:55;;;;;;;0.70;0.65;;;11.00;59.60;;;;;;5057093;28;20252;-78
2022/04/07 03:55:24;;;;;;;0.80;0.77;;;10.90;60.30;;;;;;5058776;28;20233;-78
2022/04/07 03:57:51;;;;;;;0.80;0.80;;;10.90;60.40;;;;;;5058195;28;20214;-77
2022/04/07 04:00:19;;;;;;;1.55;0.90;;;10.90;61.20;;;;;;5061733;28;20205;-78
2022/04/07 04:02:46;;;;;;;0.80;0.80;;;10.90;60.70;;;;;;5071863;28;20254;-79
2022/04/07 04:05:13;;;;;;;1.48;0.95;;;10.80;61.00;;;;;;5071603;28;20232;-77
2022/04/07 04:07:40;;;;;;;1.10;1.00;;;10.80;61.30;;;;;;5072744;28;20202;-78
2022/04/07 04:10:08;;;;;;;0.82;0.82;;;10.90;61.00;;;;;;5063030;28;20209;-78
2022/04/07 04:12:36;;;;;;;2.80;0.88;;;10.80;61.20;;;;;;5059453;28;20258;-78
2022/04/07 04:15:04;;;;;;;1.02;0.93;;;10.80;61.60;;;;;;5060719;28;20280;-78
2022/04/07 04:17:31;;;;;;;1.95;1.10;;;10.80;61.00;;;;;;5065838;28;20237;-77
2022/04/07 04:19:59;;;;;;;1.05;0.95;;;10.90;60.70;;;;;;5062067;28;20207;-79
2022/04/07 04:22:26;;;;;;;4.22;1.13;;;10.90;60.90;;;;;;5061177;28;20202;-78
2022/04/07 04:24:53;;;;;;;0.80;0.80;;;10.90;60.50;;;;;;5074290;28;20210;-79
2022/04/07 04:27:20;;;;;;;0.80;0.80;;;10.90;60.70;;;;;;5070022;28;20221;-78
2022/04/07 04:29:49;;;;;;;1.20;1.10;;;10.90;60.40;;;;;;5073611;28;20613;-78
2022/04/07 04:32:16;;;;;;;3.33;1.20;;;10.90;60.30;;;;;;5071997;28;20226;-78
2022/04/07 04:34:42;;;;;;;2.20;0.85;;;10.90;60.50;;;;;;5068372;28;20226;-79
2022/04/07 04:37:09;;;;;;;3.25;1.13;;;10.90;60.90;;;;;;5066747;28;20293;-77
2022/04/07 04:39:36;;;;;;;3.17;0.90;;;10.90;61.00;;;;;;5064391;28;20217;-78
2022/04/07 04:42:04;;;;;;;0.75;0.60;;;10.90;61.20;;;;;;5065879;28;20199;-78
2022/04/07 04:44:31;;;;;;;1.40;0.90;;;10.90;61.40;;;;;;5069223;28;20207;-78
2022/04/07 04:46:59;;;;;;;1.50;0.90;;;10.90;61.10;;;;;;5067300;28;20206;-78
2022/04/07 04:49:27;;;;;;;1.30;0.88;;;10.90;61.60;;;;;;5061167;28;20256;-77
2022/04/07 04:51:54;;;;;;;0.70;0.70;;;10.80;62.20;;;;;;5068105;28;20253;-77
2022/04/07 04:54:21;;;;;;;0.82;0.80;;;10.80;62.20;;;;;;5075486;28;20203;-77
2022/04/07 04:56:48;;;;;;;0.93;0.75;;;10.80;62.00;;;;;;5074597;28;20202;-78
2022/04/07 04:59:16;;;;;;;2.35;0.80;;;10.70;62.00;;;;;;5076305;28;20259;-77
2022/04/07 05:01:43;;;;;;;1.33;0.70;;;10.70;62.30;;;;;;5074769;28;20284;-78
2022/04/07 05:04:11;;;;;;;0.90;0.90;;;10.70;62.40;;;;;;5070323;28;20206;-79
2022/04/07 05:06:38;;;;;;;1.15;1.05;;;10.70;62.10;;;;;;5058847;28;20588;-77
2022/04/07 05:09:05;;;;;;;0.77;0.75;;;10.70;62.80;;;;;;5055797;28;20244;-78
2022/04/07 05:11:33;;;;;;;1.45;0.85;;;10.70;62.70;;;;;;5057872;28;20685;-78
2022/04/07 05:14:00;;;;;;;1.60;1.05;;;10.70;62.80;;;;;;5060599;28;20221;-79
2022/04/07 05:16:27;;;;;;;0.82;0.82;;;10.70;62.50;;;;;;5063629;28;20238;-78
2022/04/07 05:18:54;;;;;;;0.90;0.70;;;10.70;62.60;;;;;;5064376;28;20266;-78
2022/04/07 05:21:26;;;;;;;0.65;0.65;;;10.70;62.60;;;;;;5065830;28;20260;-78
2022/04/07 05:23:53;;;;;;;1.02;0.93;;;10.70;62.10;;;;;;5060972;28;20406;-78
2022/04/07 05:26:22;;;;;;;2.05;0.90;;;10.70;62.00;;;;;;5065890;28;20229;-78
2022/04/07 05:28:49;;;;;;;0.50;0.50;;;10.80;61.80;;;;;;5075111;28;20215;-77
2022/04/07 05:31:16;;;;;;;1.67;0.90;;;10.80;61.70;;;;;;5066023;28;20629;-78
2022/04/07 05:33:43;;;;;;;1.50;0.82;;;10.90;61.40;;;;;;5071521;28;20222;-78
2022/04/07 05:36:10;;;;;;;0.70;0.60;;;11.00;61.40;;;;;;5074078;28;20234;-79
2022/04/07 05:38:38;;;;;;;2.45;0.70;;;11.30;59.90;;;;;;5063773;28;20210;-79
2022/04/07 05:41:05;;;;;;;1.35;0.75;;;11.40;60.00;;;;;;5060050;28;20297;-79
2022/04/07 05:43:32;;;;;;;1.00;0.70;;;11.30;59.90;;;;;;5062255;28;20195;-79
2022/04/07 05:45:59;;;;;;;0.60;0.60;;;11.40;60.00;;;;;;5061699;28;20261;-78
2022/04/07 05:48:26;;;;;;;1.50;0.90;;;11.50;58.80;;;;;;5061304;28;20226;-79
2022/04/07 05:50:53;;;;;;;1.35;0.70;;;11.60;58.00;;;;;;5059989;28;20625;-78
2022/04/07 05:53:20;;;;;;;0.77;0.60;;;11.50;58.30;;;;;;5061288;28;20222;-79
2022/04/07 05:55:48;;;;;;;0.80;0.70;;;11.40;58.60;;;;;;5061059;28;20250;-79
2022/04/07 05:58:15;;;;;;;0.60;0.60;;;11.30;59.10;;;;;;5061051;28;20666;-79
2022/04/07 06:00:43;;;;;;;2.92;0.80;;;11.30;58.90;;;;;;5061231;28;20261;-79
2022/04/07 06:03:10;;;;;;;1.52;1.35;;;11.40;59.40;;;;;;5063412;28;20214;-80
2022/04/07 06:05:40;;;;;;;1.85;0.60;;;11.40;59.10;;;;;;5064760;28;20230;-79
2022/04/07 06:08:07;;;;;;;1.10;0.68;;;11.40;59.10;;;;;;5065086;28;20245;-78
2022/04/07 06:10:34;;;;;;;0.57;0.57;;;11.40;59.50;;;;;;5072114;28;20206;-79
2022/04/07 06:13:03;;;;;;;0.60;0.60;;;11.40;60.00;;;;;;5073918;28;20226;-79
2022/04/07 06:15:30;;;;;;;0.55;0.50;;;11.20;62.70;;;;;;5074546;28;20207;-79
2022/04/07 06:17:57;;;;;;;1.25;0.85;;;11.10;65.60;;;;;;5076022;28;20195;-79
2022/04/07 06:20:24;;;;;;;1.05;0.55;;;11.00;66.60;;;;;;5072431;28;20271;-78
2022/04/07 06:22:51;;;;;;;0.60;0.60;;;10.90;67.50;;;;;;5070524;28;20300;-78
2022/04/07 06:25:20;;;;;;;1.05;0.60;;;10.80;67.00;;;;;;5072942;28;20257;-80
2022/04/07 06:27:48;;;;;;;0.63;0.50;;;10.90;68.40;;;;;;5077886;28;20207;-79
2022/04/07 06:30:18;;;;;;;0.65;0.55;;;10.90;68.40;;;;;;5076456;28;20206;-78
2022/04/07 06:32:46;;;;;;;0.50;0.50;;;10.80;68.30;;;;;;5072623;28;20218;-78
2022/04/07 06:35:17;;;;;;;0.43;0.43;;;10.90;68.40;;;;;;5067185;28;20319;-78
2022/04/07 06:37:52;;;;;;;5.05;0.65;;;11.00;67.20;;;;;;5062119;28;20198;-78
2022/04/07 06:40:21;;;;;;;0.50;0.50;;;11.20;65.80;;;;;;5062404;28;20323;-80
2022/04/07 06:42:48;;;;;;;0.50;0.50;;;11.40;64.20;;;;;;5063341;28;20198;-79
2022/04/07 06:45:17;;;;;;;0.63;0.60;;;11.30;63.00;;;;;;5067583;28;20269;-77
2022/04/07 06:47:44;;;;;;;0.40;0.40;;;11.30;63.10;;;;;;5068613;28;20252;-79
2022/04/07 06:50:14;;;;;;;1.35;0.50;;;11.30;63.50;;;;;;5069689;28;20643;-78
2022/04/07 06:52:41;;;;;;;0.85;0.45;;;11.20;65.10;;;;;;5067362;28;20226;-78
2022/04/07 06:55:10;;;;;;;1.88;0.50;;;11.20;65.40;;;;;;5066564;28;20231;-78
2022/04/07 06:57:51;;;;;;;0.30;0.30;;;11.10;66.50;;;;;;5066141;28;20233;-78
2022/04/07 07:00:21;;;;;;;0.52;0.50;;;11.20;66.90;;;;;;5069264;28;20216;-78
2022/04/07 07:02:48;;;;;;;2.45;0.60;;;11.20;68.10;;;;;;5068989;28;20206;-79
2022/04/07 07:05:15;;;;;;;0.75;0.60;;;11.20;68.30;;;;;;5064803;28;20341;-79
2022/04/07 07:07:43;;;;;;;1.45;0.60;;;11.20;68.70;;;;;;5064382;28;20570;-79
2022/04/07 07:10:11;;;;;;;0.50;0.35;;;11.10;68.60;;;;;;5068848;28;20207;-79
2022/04/07 07:12:38;;;;;;;0.70;0.70;;;11.00;69.00;;;;;;5066166;28;20258;-81
2022/04/07 07:15:06;;;;;;;3.67;0.52;;;11.00;71.80;;;;;;5064367;28;20230;-80
2022/04/07 07:17:39;;;;;;;0.60;0.60;;;11.00;72.70;;;;;;5071604;28;20274;-80
2022/04/07 07:20:07;;;;;;;3.03;0.77;;;11.10;72.90;;;;;;5061837;28;20244;-79
2022/04/07 07:22:34;;;;;;;1.77;0.60;;;11.10;73.60;;;;;;5068816;28;20256;-80
2022/04/07 07:25:01;;;;;;;0.82;0.50;;;11.20;74.40;;;;;;5065464;28;20292;-79
2022/04/07 07:27:28;;;;;;;0.40;0.40;;;11.20;72.40;;;;;;5065565;28;20217;-79
2022/04/07 07:29:55;;;;;;;0.50;0.50;;;11.10;72.90;;;;;;5064407;28;20202;-80
2022/04/07 07:32:22;;;;;;;0.90;0.77;;;11.20;72.90;;;;;;5046847;28;20203;-80
2022/04/07 07:34:51;;;;;;;0.82;0.65;;;11.20;72.40;;;;;;5049754;28;20694;-81
2022/04/07 07:37:18;;;;;;;2.25;0.60;;;11.20;71.60;;;;;;5062385;28;20205;-80
2022/04/07 07:39:46;;;;;;;0.70;0.55;;;11.20;71.50;;;;;;5064193;28;20218;-79
2022/04/07 07:42:13;;;;;;;1.85;0.60;;;11.30;70.20;;;;;;5072113;28;20277;-79
2022/04/07 07:44:40;;;;;;;2.28;0.60;;;11.40;68.80;;;;;;5065811;28;20222;-81
2022/04/07 07:47:07;;;;;;;1.42;0.60;;;11.50;66.90;;;;;;5064051;28;20206;-79
2022/04/07 07:49:35;;;;;;;0.70;0.70;;;11.60;66.90;;;;;;5063691;28;20293;-80
2022/04/07 07:52:04;;;;;;;1.60;0.50;;;11.80;65.00;;;;;;5063531;28;20242;-80
2022/04/07 07:54:31;;;;;;;0.80;0.50;;;12.00;63.40;;;;;;5063981;28;20232;-80
2022/04/07 07:56:58;;;;;;;1.83;0.60;;;12.00;62.60;;;;;;5065011;28;20206;-79
2022/04/07 07:59:25;;;;;;;1.00;0.68;;;12.00;62.40;;;;;;5066131;28;20241;-79
2022/04/07 08:01:54;;;;;;;0.60;0.47;;;12.10;61.90;;;;;;5070171;28;20282;-79
2022/04/07 08:04:22;;;;;;;1.05;0.80;;;12.20;60.90;;;;;;5075458;28;20313;-79
2022/04/07 08:06:49;;;;;;;3.38;0.60;;;12.10;61.80;;;;;;5077030;28;20242;-79
2022/04/07 08:09:17;;;;;;;3.72;0.70;;;12.20;61.60;;;;;;5075764;28;20194;-80
2022/04/07 08:11:44;;;;;;;1.70;0.80;;;12.30;60.70;;;;;;5077816;28;20210;-80
2022/04/07 08:14:11;;;;;;;1.00;0.88;;;12.40;60.80;;;;;;5077610;28;20241;-81
2022/04/07 08:16:39;;;;;;;2.35;0.70;;;12.50;60.20;;;;;;5076058;28;20195;-81
2022/04/07 08:19:06;;;;;;;1.42;0.80;;;12.70;59.10;;;;;;5076555;28;20241;-81
2022/04/07 08:21:34;;;;;;;0.65;0.57;;;13.00;56.80;;;;;;5076425;28;20202;-78
2022/04/07 08:24:01;;;;;;;1.30;0.50;;;13.10;56.40;;;;;;5075782;28;20266;-79
2022/04/07 08:26:33;;;;;;;2.25;2.05;;;13.30;54.60;;;;;;5063360;28;20226;-80
2022/04/07 08:29:00;;;;;;;0.50;0.50;;;13.50;53.70;;;;;;5072080;28;20247;-79
2022/04/07 08:31:27;;;;;;;1.65;0.68;;;13.50;52.70;;;;;;5075608;28;20275;-79
2022/04/07 08:33:54;;;;;;;2.33;0.52;;;13.30;53.60;;;;;;5073676;28;20225;-81
2022/04/07 08:36:21;;;;;;;0.80;0.70;;;13.10;54.10;;;;;;5084236;28;20248;-80
2022/04/07 08:38:48;;;;;;;2.38;0.50;;;13.00;55.80;;;;;;5091059;28;20237;-79
2022/04/07 08:41:16;;;;;;;1.45;0.60;;;12.80;56.60;;;;;;5087294;28;20217;-79
2022/04/07 08:43:44;;;;;;;0.70;0.60;;;12.50;57.80;;;;;;5086938;28;20240;-77
2022/04/07 08:46:13;;;;;;;0.70;0.50;;;12.40;59.50;;;;;;5082519;28;20249;-79
2022/04/07 08:48:42;;;;;;;6.35;0.55;;;12.50;60.90;;;;;;5062014;28;20271;-77
2022/04/07 08:51:10;;;;;;;0.82;0.52;;;12.70;59.00;;;;;;5059077;28;20232;-80
2022/04/07 08:53:42;;;;;;;0.70;0.50;;;12.70;57.50;;;;;;5065226;28;20233;-79
2022/04/07 08:56:11;;;;;;;2.05;0.57;;;12.90;59.00;;;;;;5076177;28;20270;-81
2022/04/07 08:58:38;;;;;;;1.27;0.30;;;12.90;60.50;;;;;;5076297;28;20278;-79
2022/04/07 09:01:06;;;;;;;1.23;0.45;;;12.70;60.30;;;;;;5074024;28;20259;-80
2022/04/07 09:03:33;;;;;;;1.45;0.50;;;12.70;61.10;;;;;;5076542;28;20572;-81
2022/04/07 09:06:02;;;;;;;0.70;0.45;;;12.60;61.00;;;;;;5075307;28;20230;-80
2022/04/07 09:08:33;;;;;;;0.88;0.50;;;12.60;62.20;;;;;;5092856;28;20202;-80
2022/04/07 09:11:02;;;;;;;0.60;0.50;;;12.80;64.20;;;;;;5096565;28;20205;-82
2022/04/07 09:13:31;;;;;;;2.17;0.50;;;12.80;65.00;;;;;;5092943;28;20225;-80
2022/04/07 09:16:00;;;;;;;1.25;0.60;;;12.90;65.70;;;;;;5096808;28;20284;-79
2022/04/07 09:18:28;;;;;;;0.40;0.40;;;13.00;65.70;;;;;;5092152;28;20658;-79
2022/04/07 09:20:55;;;;;;;0.95;0.50;;;12.80;65.20;;;;;;5091707;28;20279;-81
2022/04/07 09:23:23;;;;;;;0.77;0.50;;;12.80;66.10;;;;;;5093314;28;20213;-79
2022/04/07 09:25:50;;;;;;;0.65;0.65;;;12.70;66.50;;;;;;5093882;28;20218;-80
2022/04/07 09:28:34;;;;;;;0.50;0.50;;;12.60;68.80;;;;;;5092865;28;20210;-80
2022/04/07 09:31:02;;;;;;;1.15;0.68;;;12.40;70.60;;;;;;5092178;28;20209;-80
2022/04/07 09:33:30;;;;;;;1.77;1.00;;;12.40;72.20;;;;;;5089290;28;20238;-79
2022/04/07 09:36:02;;;;;;;3.50;0.63;;;12.50;73.40;;;;;;5088649;28;20222;-79
2022/04/07 09:38:31;;;;;;;1.50;1.40;;;12.50;71.10;;;;;;5090339;28;20209;-80
2022/04/07 09:41:09;;;;;;;1.20;0.60;;;12.50;69.90;;;;;;5090706;28;20205;-79
2022/04/07 09:43:48;;;;;;;0.77;0.68;;;12.60;70.00;;;;;;5086624;28;20209;-80
2022/04/07 09:46:16;;;;;;;1.40;0.65;;;12.60;69.40;;;;;;5086434;28;20236;-79
2022/04/07 09:49:01;;;;;;;2.85;0.50;;;12.70;68.80;;;;;;5085626;28;20709;-80
2022/04/07 09:51:32;;;;;;;0.70;0.70;;;12.90;66.30;;;;;;5069812;28;20228;-79
2022/04/07 09:53:59;;;;;;;1.67;0.68;;;12.90;62.40;;;;;;5069317;28;20267;-80
2022/04/07 09:56:28;;;;;;;0.93;0.50;;;13.00;60.30;;;;;;5069262;28;20242;-78
2022/04/07 09:58:56;;;;;;;0.40;0.40;;;13.20;59.00;;;;;;5065573;28;20219;-78
2022/04/07 10:01:24;;;;;;;1.30;0.47;;;13.30;57.30;;;;;;5072333;28;20208;-79
2022/04/07 10:03:52;;;;;;;0.40;0.40;;;13.30;56.10;;;;;;5071755;28;20198;-78
2022/04/07 10:06:21;;;;;;;0.70;0.60;;;13.40;56.00;;;;;;5069891;28;20238;-79
2022/04/07 10:08:50;;;;;;;1.42;0.50;;;13.50;55.80;;;;;;5065416;28;20206;-79
2022/04/07 10:11:18;;;;;;;0.40;0.40;;;13.70;55.30;;;;;;5062629;28;20581;-79
2022/04/07 10:13:46;;;;;;;0.40;0.40;;;13.70;54.30;;;;;;5086941;28;20490;-80
2022/04/07 10:16:15;;;;;;;0.68;0.50;;;13.70;54.60;;;;;;5084168;28;20230;-79
2022/04/07 10:18:48;;;;;;;0.65;0.35;;;14.00;54.30;;;;;;5082345;28;20206;-76
2022/04/07 10:21:31;;;;;;;1.00;0.60;;;14.10;54.00;;;;;;5070185;28;20666;-78
2022/04/07 10:24:14;;;;;;;0.50;0.50;;;14.20;54.10;;;;;;5061249;28;20416;-76
2022/04/07 10:26:44;;;;;;;2.55;0.50;;;14.20;53.20;;;;;;5063151;28;20677;-78
2022/04/07 10:29:21;;;;;;;1.93;0.57;;;14.60;53.50;;;;;;5063384;28;20226;-76
2022/04/07 10:32:21;;;;;;;1.00;0.53;;;14.80;51.10;;;;;;5063084;28;20455;-77
2022/04/07 10:34:56;;;;;;;0.47;0.40;;;14.90;49.70;;;;;;5064924;28;20463;-75
2022/04/07 10:37:43;;;;;;;1.27;0.40;;;14.90;47.60;;;;;;5067432;28;20453;-77
2022/04/07 10:40:39;;;;;;;0.50;0.40;;;14.60;47.30;;;;;;5069473;28;20648;-78
2022/04/07 10:43:23;;;;;;;0.40;0.40;;;14.60;47.80;;;;;;5065644;28;20428;-77
2022/04/07 10:45:52;;;;;;;0.77;0.47;;;15.00;46.90;;;;;;5059547;28;20454;-77
2022/04/07 10:48:29;;;;;;;1.03;0.33;;;15.10;46.60;;;;;;5061182;28;20488;-79
2022/04/07 10:50:59;;;;;;;0.87;0.50;;;15.10;48.90;;;;;;5078537;28;20420;-80
2022/04/07 10:53:30;;;;;;;0.60;0.40;;;14.70;49.40;;;;;;5066688;28;20462;-79
2022/04/07 10:56:03;;;;;;;2.10;0.50;;;14.50;49.10;;;;;;5059869;28;20535;-78
2022/04/07 10:58:40;;;;;;;3.23;0.50;;;14.70;48.40;;;;;;5044181;28;20451;-78
2022/04/07 11:01:08;;;;;;;2.50;0.40;;;14.90;46.60;;;;;;5041737;28;20560;-81
2022/04/07 11:03:36;;;;;;;0.60;0.40;;;14.90;46.20;;;;;;5042056;28;20527;-81
2022/04/07 11:06:06;;;;;;;2.00;0.40;;;14.90;46.10;;;;;;5042208;28;20465;-78
2022/04/07 11:08:35;;;;;;;1.80;0.40;;;15.10;45.90;;;;;;5044343;28;20464;-80
2022/04/07 11:11:02;;;;;;;0.40;0.40;;;15.20;44.40;;;;;;5044005;28;20457;-80
2022/04/07 11:13:42;;;;;;;0.87;0.40;;;15.40;44.50;;;;;;5043842;28;20516;-81
2022/04/07 11:16:19;;;;;;;1.03;0.70;;;15.60;44.70;;;;;;5049050;28;20485;-81
2022/04/07 11:19:04;;;;;;;1.23;0.50;;;15.40;44.50;;;;;;5056429;28;20433;-79
2022/04/07 11:21:45;;;;;;;0.40;0.40;;;15.40;44.50;;;;;;5054292;28;20452;-81
2022/04/07 11:24:22;;;;;;;1.37;0.40;;;15.40;45.90;;;;;;5057591;28;20404;-85
2022/04/07 11:26:49;;;;;;;0.83;0.40;;;15.30;47.40;;;;;;5058384;28;20446;-83
2022/04/07 11:29:30;;;;;;;0.30;0.30;;;15.20;48.00;;;;;;5057228;28;20487;-80
2022/04/07 11:32:07;;;;;;;1.07;0.43;;;15.30;46.50;;;;;;5056213;28;20425;-78
2022/04/07 11:35:00;;;;;;;1.50;0.40;;;15.20;45.70;;;;;;5051008;28;20531;-80
2022/04/07 11:37:27;;;;;;;1.60;0.50;;;15.10;47.20;;;;;;5050970;28;20509;-81
2022/04/07 11:39:56;;;;;;;0.68;0.40;;;15.10;47.30;;;;;;5045227;28;20489;-82
2022/04/07 11:42:23;;;;;;;2.00;0.43;;;14.90;48.40;;;;;;5044881;28;20210;-81
2022/04/07 11:44:58;;;;;;;0.40;0.35;;;15.00;48.80;;;;;;5042504;28;20503;-79
2022/04/07 11:47:28;;;;;;;0.50;0.30;;;14.80;47.60;;;;;;5044438;28;20214;-79
2022/04/07 11:49:55;;;;;;;1.38;0.40;;;14.70;47.70;;;;;;5044606;28;20207;-80
2022/04/07 11:52:27;;;;;;;1.23;0.40;;;14.90;48.00;;;;;;5045920;28;20207;-81
2022/04/07 11:54:57;;;;;;;0.90;0.40;;;14.90;47.40;;;;;;5047551;28;20948;-79
2022/04/07 11:57:25;;;;;;;0.50;0.40;;;14.90;49.00;;;;;;5050278;28;20447;-81
2022/04/07 11:59:56;;;;;;;1.17;0.40;;;14.70;52.00;;;;;;5045791;28;20438;-82
2022/04/07 12:02:24;;;;;;;0.50;0.40;;;14.40;55.60;;;;;;5053383;28;20504;-81
2022/04/07 12:04:56;;;;;;;1.33;0.47;;;14.00;57.60;;;;;;5052864;28;20462;-81
2022/04/07 12:07:23;;;;;;;0.38;0.38;;;13.90;58.60;;;;;;5051982;28;20306;-80
2022/04/07 12:09:50;;;;;;;0.65;0.30;;;14.00;59.30;;;;;;5048471;28;20229;-80
2022/04/07 12:12:19;;;;;;;1.40;0.40;;;14.10;57.60;;;;;;5045154;28;20203;-81
2022/04/07 12:14:47;;;;;;;0.77;0.32;;;14.30;54.70;;;;;;5047078;28;20741;-81
2022/04/07 12:17:14;;;;;;;3.17;0.50;;;14.40;55.30;;;;;;5049242;28;20234;-82
2022/04/07 12:19:45;;;;;;;1.58;0.40;;;14.40;55.00;;;;;;5045817;28;20605;-79
2022/04/07 12:22:12;;;;;;;1.33;0.63;;;14.40;53.30;;;;;;5039565;28;20207;-79
2022/04/07 12:24:39;;;;;;;0.70;0.60;;;14.50;53.40;;;;;;5038128;28;21144;-79
2022/04/07 12:27:08;;;;;;;5.10;0.60;;;14.70;51.30;;;;;;5038993;28;20820;-81
2022/04/07 12:29:36;;;;;;;0.60;0.50;;;14.80;51.30;;;;;;5042669;28;20556;-79
2022/04/07 12:32:06;;;;;;;0.40;0.40;;;14.70;51.20;;;;;;5043143;28;20490;-80
2022/04/07 12:34:34;;;;;;;0.40;0.40;;;14.80;49.70;;;;;;5044269;28;20495;-80
2022/04/07 12:37:01;;;;;;;0.47;0.30;;;14.90;48.80;;;;;;5045017;28;20443;-80
2022/04/07 12:39:31;;;;;;;0.40;0.30;;;15.00;48.30;;;;;;5047675;28;20505;-80
2022/04/07 12:42:05;;;;;;;1.47;0.40;;;15.20;47.80;;;;;;5047885;28;20477;-80
2022/04/07 12:44:38;;;;;;;0.40;0.30;;;15.30;46.90;;;;;;5049515;28;20430;-80
2022/04/07 12:47:14;;;;;;;2.10;0.40;;;15.00;47.20;;;;;;5050866;28;20432;-80
2022/04/07 12:49:41;;;;;;;0.50;0.50;;;14.80;48.90;;;;;;5052002;28;20442;-81
2022/04/07 12:52:11;;;;;;;0.80;0.30;;;14.90;49.80;;;;;;5051052;28;20215;-80
2022/04/07 12:54:39;;;;;;;0.50;0.40;;;15.00;47.60;;;;;;5052931;28;20459;-80
2022/04/07 12:57:12;;;;;;;1.10;0.50;;;15.00;46.70;;;;;;5048441;28;20458;-81